sensor_id;sensor_type;location;lat;lon;timestamp;P1;durP1;ratioP1;P2;durP2;ratioP2
10092;SDS011;5085;48.092;11.484;2023-02-28T00:00:17;3.22;;;1.40;;
10092;SDS011;5085;48.092;11.484;2023-02-28T00:02:44;3.42;;;1.30;;
10092;SDS011;5085;48.092;11.484;2023-02-28T00:05:12;1.25;;;1.10;;
10092;SDS011;5085;48.092;11.484;2023-02-28T00:07:40;4.25;;;1.42;;
10092;SDS011;5085;48.092;11.484;2023-02-28T00:10:09;1.60;;;0.90;;
10092;SDS011;5085;48.092;11.484;2023-02-28T00:12:37;2.22;;;1.50;;
10092;SDS011;5085;48.092;11.484;2023-02-28T00:15:07;5.70;;;2.13;;
10092;SDS011;5085;48.092;11.484;2023-02-28T00:17:35;9.40;;;1.52;;
10092;SDS011;5085;48.092;11.484;2023-02-28T00:20:02;2.42;;;1.42;;
10092;SDS011;5085;48.092;11.484;2023-02-28T00:22:30;2.83;;;1.38;;
10092;SDS011;5085;48.092;11.484;2023-02-28T00:24:56;1.77;;;1.10;;
10092;SDS011;5085;48.092;11.484;2023-02-28T00:27:22;2.38;;;1.50;;
10092;SDS011;5085;48.092;11.484;2023-02-28T00:29:48;3.17;;;1.15;;
10092;SDS011;5085;48.092;11.484;2023-02-28T00:32:14;6.40;;;2.03;;
10092;SDS011;5085;48.092;11.484;2023-02-28T00:34:40;1.15;;;0.93;;
10092;SDS011;5085;48.092;11.484;2023-02-28T00:37:11;3.42;;;1.73;;
10092;SDS011;5085;48.092;11.484;2023-02-28T00:39:37;1.17;;;0.85;;
10092;SDS011;5085;48.092;11.484;2023-02-28T00:42:05;2.78;;;1.45;;
10092;SDS011;5085;48.092;11.484;2023-02-28T00:44:32;2.33;;;1.45;;
10092;SDS011;5085;48.092;11.484;2023-02-28T00:46:58;1.83;;;1.13;;
10092;SDS011;5085;48.092;11.484;2023-02-28T00:49:25;2.33;;;1.10;;
10092;SDS011;5085;48.092;11.484;2023-02-28T00:51:52;1.65;;;1.40;;
10092;SDS011;5085;48.092;11.484;2023-02-28T00:54:19;2.28;;;1.30;;
10092;SDS011;5085;48.092;11.484;2023-02-28T00:56:47;2.47;;;1.38;;
10092;SDS011;5085;48.092;11.484;2023-02-28T00:59:13;4.72;;;2.50;;
10092;SDS011;5085;48.092;11.484;2023-02-28T01:01:40;1.50;;;0.95;;
10092;SDS011;5085;48.092;11.484;2023-02-28T01:04:07;3.25;;;1.63;;
10092;SDS011;5085;48.092;11.484;2023-02-28T01:06:35;4.05;;;1.33;;
10092;SDS011;5085;48.092;11.484;2023-02-28T01:09:02;1.80;;;1.33;;
10092;SDS011;5085;48.092;11.484;2023-02-28T01:11:29;1.40;;;1.20;;
10092;SDS011;5085;48.092;11.484;2023-02-28T01:13:55;3.30;;;1.95;;
10092;SDS011;5085;48.092;11.484;2023-02-28T01:16:27;2.28;;;1.13;;
10092;SDS011;5085;48.092;11.484;2023-02-28T01:18:54;5.40;;;1.30;;
10092;SDS011;5085;48.092;11.484;2023-02-28T01:21:20;1.52;;;1.15;;
10092;SDS011;5085;48.092;11.484;2023-02-28T01:23:47;4.00;;;1.70;;
10092;SDS011;5085;48.092;11.484;2023-02-28T01:26:15;5.32;;;2.45;;
10092;SDS011;5085;48.092;11.484;2023-02-28T01:28:43;3.08;;;1.63;;
10092;SDS011;5085;48.092;11.484;2023-02-28T01:31:09;2.97;;;1.40;;
10092;SDS011;5085;48.092;11.484;2023-02-28T01:33:41;3.22;;;1.77;;
10092;SDS011;5085;48.092;11.484;2023-02-28T01:36:11;1.83;;;1.27;;
10092;SDS011;5085;48.092;11.484;2023-02-28T01:38:39;4.13;;;1.90;;
10092;SDS011;5085;48.092;11.484;2023-02-28T01:41:05;1.70;;;0.95;;
10092;SDS011;5085;48.092;11.484;2023-02-28T01:43:52;2.58;;;1.73;;
10092;SDS011;5085;48.092;11.484;2023-02-28T01:46:20;4.20;;;1.95;;
10092;SDS011;5085;48.092;11.484;2023-02-28T01:48:54;1.73;;;1.15;;
10092;SDS011;5085;48.092;11.484;2023-02-28T01:51:28;2.45;;;1.10;;
10092;SDS011;5085;48.092;11.484;2023-02-28T01:54:02;1.88;;;1.08;;
10092;SDS011;5085;48.092;11.484;2023-02-28T01:56:41;2.33;;;1.70;;
10092;SDS011;5085;48.092;11.484;2023-02-28T01:59:12;4.75;;;1.67;;
10092;SDS011;5085;48.092;11.484;2023-02-28T02:01:43;1.85;;;1.40;;
10092;SDS011;5085;48.092;11.484;2023-02-28T02:04:09;2.83;;;1.55;;
10092;SDS011;5085;48.092;11.484;2023-02-28T02:06:40;3.92;;;1.70;;
10092;SDS011;5085;48.092;11.484;2023-02-28T02:09:09;3.17;;;1.77;;
10092;SDS011;5085;48.092;11.484;2023-02-28T02:11:37;2.88;;;1.58;;
10092;SDS011;5085;48.092;11.484;2023-02-28T02:14:16;3.30;;;1.25;;
10092;SDS011;5085;48.092;11.484;2023-02-28T02:17:13;4.25;;;2.13;;
10092;SDS011;5085;48.092;11.484;2023-02-28T02:19:46;3.95;;;1.92;;
10092;SDS011;5085;48.092;11.484;2023-02-28T02:22:38;3.75;;;1.95;;
10092;SDS011;5085;48.092;11.484;2023-02-28T02:30:18;1.85;;;1.27;;
10092;SDS011;5085;48.092;11.484;2023-02-28T02:35:43;2.17;;;1.60;;
10092;SDS011;5085;48.092;11.484;2023-02-28T02:38:31;2.78;;;1.45;;
10092;SDS011;5085;48.092;11.484;2023-02-28T02:41:34;2.42;;;1.48;;
10092;SDS011;5085;48.092;11.484;2023-02-28T02:44:07;3.33;;;1.50;;
10092;SDS011;5085;48.092;11.484;2023-02-28T02:46:43;6.80;;;1.92;;
10092;SDS011;5085;48.092;11.484;2023-02-28T02:49:24;1.98;;;1.20;;
10092;SDS011;5085;48.092;11.484;2023-02-28T02:51:54;2.08;;;1.30;;
10092;SDS011;5085;48.092;11.484;2023-02-28T02:54:24;3.10;;;1.48;;
10092;SDS011;5085;48.092;11.484;2023-02-28T02:56:58;3.97;;;1.27;;
10092;SDS011;5085;48.092;11.484;2023-02-28T02:59:29;7.85;;;1.98;;
10092;SDS011;5085;48.092;11.484;2023-02-28T03:02:01;3.60;;;1.50;;
10092;SDS011;5085;48.092;11.484;2023-02-28T03:04:38;2.75;;;1.38;;
10092;SDS011;5085;48.092;11.484;2023-02-28T03:07:08;5.60;;;1.92;;
10092;SDS011;5085;48.092;11.484;2023-02-28T03:09:34;2.85;;;1.42;;
10092;SDS011;5085;48.092;11.484;2023-02-28T03:12:07;3.47;;;1.85;;
10092;SDS011;5085;48.092;11.484;2023-02-28T03:17:10;2.70;;;1.92;;
10092;SDS011;5085;48.092;11.484;2023-02-28T03:20:02;2.17;;;1.67;;
10092;SDS011;5085;48.092;11.484;2023-02-28T03:22:45;3.22;;;1.80;;
10092;SDS011;5085;48.092;11.484;2023-02-28T03:28:16;9.40;;;2.55;;
10092;SDS011;5085;48.092;11.484;2023-02-28T03:36:33;3.63;;;1.95;;
10092;SDS011;5085;48.092;11.484;2023-02-28T03:39:22;3.70;;;1.65;;
10092;SDS011;5085;48.092;11.484;2023-02-28T03:41:57;4.93;;;2.53;;
10092;SDS011;5085;48.092;11.484;2023-02-28T03:44:28;4.43;;;2.45;;
10092;SDS011;5085;48.092;11.484;2023-02-28T03:47:21;4.15;;;2.15;;
10092;SDS011;5085;48.092;11.484;2023-02-28T03:49:52;3.20;;;1.85;;
10092;SDS011;5085;48.092;11.484;2023-02-28T03:52:41;3.78;;;2.15;;
10092;SDS011;5085;48.092;11.484;2023-02-28T03:55:12;5.72;;;1.65;;
10092;SDS011;5085;48.092;11.484;2023-02-28T03:57:43;4.35;;;2.25;;
10092;SDS011;5085;48.092;11.484;2023-02-28T04:00:40;1.73;;;1.33;;
10092;SDS011;5085;48.092;11.484;2023-02-28T04:03:10;7.07;;;2.65;;
10092;SDS011;5085;48.092;11.484;2023-02-28T04:05:53;5.57;;;2.50;;
10092;SDS011;5085;48.092;11.484;2023-02-28T04:08:20;4.25;;;2.13;;
10092;SDS011;5085;48.092;11.484;2023-02-28T04:10:53;5.55;;;2.50;;
10092;SDS011;5085;48.092;11.484;2023-02-28T04:13:26;3.78;;;1.48;;
10092;SDS011;5085;48.092;11.484;2023-02-28T04:15:52;3.10;;;1.77;;
10092;SDS011;5085;48.092;11.484;2023-02-28T04:18:18;2.45;;;1.77;;
10092;SDS011;5085;48.092;11.484;2023-02-28T04:20:49;3.70;;;2.55;;
10092;SDS011;5085;48.092;11.484;2023-02-28T04:23:15;3.00;;;2.05;;
10092;SDS011;5085;48.092;11.484;2023-02-28T04:25:41;4.90;;;2.35;;
10092;SDS011;5085;48.092;11.484;2023-02-28T04:28:07;5.05;;;2.42;;
10092;SDS011;5085;48.092;11.484;2023-02-28T04:30:33;4.28;;;2.53;;
10092;SDS011;5085;48.092;11.484;2023-02-28T04:32:59;3.63;;;2.13;;
10092;SDS011;5085;48.092;11.484;2023-02-28T04:35:26;4.47;;;2.65;;
10092;SDS011;5085;48.092;11.484;2023-02-28T04:37:52;3.92;;;2.05;;
10092;SDS011;5085;48.092;11.484;2023-02-28T04:40:18;5.18;;;2.97;;
10092;SDS011;5085;48.092;11.484;2023-02-28T04:42:44;2.85;;;1.92;;
10092;SDS011;5085;48.092;11.484;2023-02-28T04:45:10;11.95;;;3.03;;
10092;SDS011;5085;48.092;11.484;2023-02-28T04:47:36;3.08;;;2.15;;
10092;SDS011;5085;48.092;11.484;2023-02-28T04:50:02;3.50;;;2.53;;
10092;SDS011;5085;48.092;11.484;2023-02-28T04:52:29;2.95;;;1.67;;
10092;SDS011;5085;48.092;11.484;2023-02-28T04:54:55;3.92;;;2.67;;
10092;SDS011;5085;48.092;11.484;2023-02-28T04:57:21;5.90;;;3.42;;
10092;SDS011;5085;48.092;11.484;2023-02-28T04:59:47;3.60;;;2.53;;
10092;SDS011;5085;48.092;11.484;2023-02-28T05:02:13;6.85;;;2.78;;
10092;SDS011;5085;48.092;11.484;2023-02-28T05:04:39;10.10;;;3.95;;
10092;SDS011;5085;48.092;11.484;2023-02-28T05:07:05;5.47;;;3.40;;
10092;SDS011;5085;48.092;11.484;2023-02-28T05:09:31;5.93;;;2.75;;
10092;SDS011;5085;48.092;11.484;2023-02-28T05:11:58;4.30;;;2.83;;
10092;SDS011;5085;48.092;11.484;2023-02-28T05:14:24;4.38;;;2.40;;
10092;SDS011;5085;48.092;11.484;2023-02-28T05:16:51;6.40;;;3.13;;
10092;SDS011;5085;48.092;11.484;2023-02-28T05:19:17;7.30;;;3.53;;
10092;SDS011;5085;48.092;11.484;2023-02-28T05:21:53;8.13;;;3.78;;
10092;SDS011;5085;48.092;11.484;2023-02-28T05:24:20;5.93;;;3.17;;
10092;SDS011;5085;48.092;11.484;2023-02-28T05:26:49;5.43;;;2.58;;
10092;SDS011;5085;48.092;11.484;2023-02-28T05:29:17;5.70;;;3.38;;
10092;SDS011;5085;48.092;11.484;2023-02-28T05:31:43;7.35;;;2.70;;
10092;SDS011;5085;48.092;11.484;2023-02-28T05:34:09;6.10;;;3.70;;
10092;SDS011;5085;48.092;11.484;2023-02-28T05:36:38;7.03;;;4.28;;
10092;SDS011;5085;48.092;11.484;2023-02-28T05:39:05;5.97;;;3.53;;
10092;SDS011;5085;48.092;11.484;2023-02-28T05:41:32;5.88;;;4.13;;
10092;SDS011;5085;48.092;11.484;2023-02-28T05:43:58;7.85;;;4.82;;
10092;SDS011;5085;48.092;11.484;2023-02-28T05:46:25;6.00;;;3.25;;
10092;SDS011;5085;48.092;11.484;2023-02-28T05:48:51;13.35;;;5.25;;
10092;SDS011;5085;48.092;11.484;2023-02-28T05:51:18;8.93;;;3.45;;
10092;SDS011;5085;48.092;11.484;2023-02-28T05:53:44;12.25;;;5.35;;
10092;SDS011;5085;48.092;11.484;2023-02-28T05:56:11;7.60;;;4.15;;
10092;SDS011;5085;48.092;11.484;2023-02-28T05:58:37;5.60;;;3.80;;
10092;SDS011;5085;48.092;11.484;2023-02-28T06:01:19;6.20;;;3.83;;
10092;SDS011;5085;48.092;11.484;2023-02-28T06:03:58;6.38;;;4.10;;
10092;SDS011;5085;48.092;11.484;2023-02-28T06:06:25;5.97;;;3.95;;
10092;SDS011;5085;48.092;11.484;2023-02-28T06:08:51;7.55;;;3.95;;
10092;SDS011;5085;48.092;11.484;2023-02-28T06:11:17;7.43;;;4.70;;
10092;SDS011;5085;48.092;11.484;2023-02-28T06:13:45;5.32;;;2.88;;
10092;SDS011;5085;48.092;11.484;2023-02-28T06:16:11;7.65;;;4.00;;
10092;SDS011;5085;48.092;11.484;2023-02-28T06:18:37;7.53;;;4.18;;
10092;SDS011;5085;48.092;11.484;2023-02-28T06:21:04;7.30;;;4.28;;
10092;SDS011;5085;48.092;11.484;2023-02-28T06:23:30;15.10;;;3.00;;
10092;SDS011;5085;48.092;11.484;2023-02-28T06:25:56;9.30;;;4.00;;
10092;SDS011;5085;48.092;11.484;2023-02-28T06:28:25;4.65;;;3.03;;
10092;SDS011;5085;48.092;11.484;2023-02-28T06:30:52;6.75;;;4.07;;
10092;SDS011;5085;48.092;11.484;2023-02-28T06:33:24;6.38;;;4.18;;
10092;SDS011;5085;48.092;11.484;2023-02-28T06:35:50;7.53;;;4.55;;
10092;SDS011;5085;48.092;11.484;2023-02-28T06:38:17;7.35;;;4.65;;
10092;SDS011;5085;48.092;11.484;2023-02-28T06:40:44;7.30;;;4.32;;
10092;SDS011;5085;48.092;11.484;2023-02-28T06:43:17;15.90;;;3.22;;
10092;SDS011;5085;48.092;11.484;2023-02-28T06:45:44;9.93;;;5.32;;
10092;SDS011;5085;48.092;11.484;2023-02-28T06:48:10;10.13;;;5.00;;
10092;SDS011;5085;48.092;11.484;2023-02-28T06:50:37;8.57;;;4.78;;
10092;SDS011;5085;48.092;11.484;2023-02-28T06:53:03;9.43;;;4.45;;
10092;SDS011;5085;48.092;11.484;2023-02-28T06:55:29;9.48;;;5.65;;
10092;SDS011;5085;48.092;11.484;2023-02-28T06:57:56;8.63;;;4.63;;
10092;SDS011;5085;48.092;11.484;2023-02-28T07:00:23;13.30;;;5.38;;
10092;SDS011;5085;48.092;11.484;2023-02-28T07:02:49;9.65;;;5.68;;
10092;SDS011;5085;48.092;11.484;2023-02-28T07:05:15;10.40;;;5.55;;
10092;SDS011;5085;48.092;11.484;2023-02-28T07:07:44;12.23;;;5.60;;
10092;SDS011;5085;48.092;11.484;2023-02-28T07:10:12;11.18;;;5.93;;
10092;SDS011;5085;48.092;11.484;2023-02-28T07:12:42;8.25;;;5.57;;
10092;SDS011;5085;48.092;11.484;2023-02-28T07:15:09;8.07;;;4.78;;
10092;SDS011;5085;48.092;11.484;2023-02-28T07:17:35;6.88;;;5.07;;
10092;SDS011;5085;48.092;11.484;2023-02-28T07:20:01;9.65;;;4.93;;
10092;SDS011;5085;48.092;11.484;2023-02-28T07:22:33;11.40;;;5.78;;
10092;SDS011;5085;48.092;11.484;2023-02-28T07:24:59;7.25;;;4.00;;
10092;SDS011;5085;48.092;11.484;2023-02-28T07:27:25;9.27;;;4.50;;
10092;SDS011;5085;48.092;11.484;2023-02-28T07:29:51;7.93;;;4.75;;
10092;SDS011;5085;48.092;11.484;2023-02-28T07:32:18;7.75;;;5.35;;
10092;SDS011;5085;48.092;11.484;2023-02-28T07:34:44;6.28;;;3.53;;
10092;SDS011;5085;48.092;11.484;2023-02-28T07:37:10;6.70;;;4.30;;
10092;SDS011;5085;48.092;11.484;2023-02-28T07:39:36;8.30;;;4.68;;
10092;SDS011;5085;48.092;11.484;2023-02-28T07:42:05;8.38;;;5.32;;
10092;SDS011;5085;48.092;11.484;2023-02-28T07:44:34;8.18;;;5.22;;
10092;SDS011;5085;48.092;11.484;2023-02-28T07:47:06;9.40;;;4.63;;
10092;SDS011;5085;48.092;11.484;2023-02-28T07:49:34;8.50;;;5.43;;
10092;SDS011;5085;48.092;11.484;2023-02-28T07:52:01;10.00;;;5.18;;
10092;SDS011;5085;48.092;11.484;2023-02-28T07:54:28;5.95;;;3.38;;
10092;SDS011;5085;48.092;11.484;2023-02-28T07:56:54;11.48;;;5.55;;
10092;SDS011;5085;48.092;11.484;2023-02-28T07:59:20;12.73;;;5.57;;
10092;SDS011;5085;48.092;11.484;2023-02-28T08:01:46;10.73;;;5.57;;
10092;SDS011;5085;48.092;11.484;2023-02-28T08:04:15;8.00;;;4.40;;
10092;SDS011;5085;48.092;11.484;2023-02-28T08:06:44;8.07;;;4.63;;
10092;SDS011;5085;48.092;11.484;2023-02-28T08:09:10;5.45;;;3.50;;
10092;SDS011;5085;48.092;11.484;2023-02-28T08:11:36;8.52;;;5.15;;
10092;SDS011;5085;48.092;11.484;2023-02-28T08:14:02;7.65;;;4.90;;
10092;SDS011;5085;48.092;11.484;2023-02-28T08:16:28;6.68;;;4.45;;
10092;SDS011;5085;48.092;11.484;2023-02-28T08:18:54;6.47;;;3.65;;
10092;SDS011;5085;48.092;11.484;2023-02-28T08:21:21;10.93;;;5.63;;
10092;SDS011;5085;48.092;11.484;2023-02-28T08:23:47;10.93;;;4.13;;
10092;SDS011;5085;48.092;11.484;2023-02-28T08:26:17;9.70;;;6.00;;
10092;SDS011;5085;48.092;11.484;2023-02-28T08:28:44;11.70;;;3.42;;
10092;SDS011;5085;48.092;11.484;2023-02-28T08:31:11;9.10;;;6.22;;
10092;SDS011;5085;48.092;11.484;2023-02-28T08:33:39;3.47;;;2.60;;
10092;SDS011;5085;48.092;11.484;2023-02-28T08:36:07;6.63;;;5.32;;
10092;SDS011;5085;48.092;11.484;2023-02-28T08:38:34;13.80;;;5.38;;
10092;SDS011;5085;48.092;11.484;2023-02-28T08:41:02;11.95;;;6.50;;
10092;SDS011;5085;48.092;11.484;2023-02-28T08:43:33;11.18;;;6.68;;
10092;SDS011;5085;48.092;11.484;2023-02-28T08:46:00;9.20;;;5.68;;
10092;SDS011;5085;48.092;11.484;2023-02-28T08:48:28;12.68;;;6.65;;
10092;SDS011;5085;48.092;11.484;2023-02-28T08:50:56;7.22;;;4.45;;
10092;SDS011;5085;48.092;11.484;2023-02-28T08:53:23;5.63;;;2.65;;
10092;SDS011;5085;48.092;11.484;2023-02-28T08:56:03;9.88;;;6.28;;
10092;SDS011;5085;48.092;11.484;2023-02-28T08:58:31;9.20;;;5.65;;
10092;SDS011;5085;48.092;11.484;2023-02-28T09:00:57;8.23;;;4.65;;
10092;SDS011;5085;48.092;11.484;2023-02-28T09:03:23;10.43;;;6.07;;
10092;SDS011;5085;48.092;11.484;2023-02-28T09:05:53;9.77;;;5.85;;
10092;SDS011;5085;48.092;11.484;2023-02-28T09:08:21;12.57;;;7.20;;
10092;SDS011;5085;48.092;11.484;2023-02-28T09:10:48;12.90;;;6.72;;
10092;SDS011;5085;48.092;11.484;2023-02-28T09:13:14;12.50;;;7.22;;
10092;SDS011;5085;48.092;11.484;2023-02-28T09:15:40;13.88;;;6.95;;
10092;SDS011;5085;48.092;11.484;2023-02-28T09:18:06;9.90;;;5.20;;
10092;SDS011;5085;48.092;11.484;2023-02-28T09:20:38;13.05;;;6.85;;
10092;SDS011;5085;48.092;11.484;2023-02-28T09:23:06;12.13;;;6.95;;
10092;SDS011;5085;48.092;11.484;2023-02-28T09:25:45;11.25;;;6.50;;
10092;SDS011;5085;48.092;11.484;2023-02-28T09:28:20;8.00;;;4.43;;
10092;SDS011;5085;48.092;11.484;2023-02-28T09:30:51;14.02;;;7.13;;
10092;SDS011;5085;48.092;11.484;2023-02-28T09:33:20;12.43;;;6.50;;
10092;SDS011;5085;48.092;11.484;2023-02-28T09:35:47;13.65;;;6.82;;
10092;SDS011;5085;48.092;11.484;2023-02-28T09:38:14;9.77;;;6.20;;
10092;SDS011;5085;48.092;11.484;2023-02-28T09:40:46;11.75;;;7.00;;
10092;SDS011;5085;48.092;11.484;2023-02-28T09:43:15;10.98;;;6.38;;
10092;SDS011;5085;48.092;11.484;2023-02-28T09:45:45;9.90;;;6.43;;
10092;SDS011;5085;48.092;11.484;2023-02-28T09:48:23;12.52;;;6.28;;
10092;SDS011;5085;48.092;11.484;2023-02-28T09:51:00;13.43;;;6.97;;
10092;SDS011;5085;48.092;11.484;2023-02-28T09:53:31;10.45;;;5.93;;
10092;SDS011;5085;48.092;11.484;2023-02-28T09:56:11;13.25;;;7.72;;
10092;SDS011;5085;48.092;11.484;2023-02-28T09:58:54;11.20;;;5.55;;
10092;SDS011;5085;48.092;11.484;2023-02-28T10:01:31;7.22;;;4.20;;
10092;SDS011;5085;48.092;11.484;2023-02-28T10:06:56;12.80;;;6.03;;
10092;SDS011;5085;48.092;11.484;2023-02-28T10:09:27;9.75;;;6.00;;
10092;SDS011;5085;48.092;11.484;2023-02-28T10:12:04;14.82;;;6.57;;
10092;SDS011;5085;48.092;11.484;2023-02-28T10:14:33;13.38;;;6.70;;
10092;SDS011;5085;48.092;11.484;2023-02-28T10:17:04;13.35;;;6.53;;
10092;SDS011;5085;48.092;11.484;2023-02-28T10:22:08;13.35;;;5.57;;
10092;SDS011;5085;48.092;11.484;2023-02-28T10:27:13;7.95;;;5.35;;
10092;SDS011;5085;48.092;11.484;2023-02-28T10:29:46;11.95;;;6.32;;
10092;SDS011;5085;48.092;11.484;2023-02-28T10:32:15;13.32;;;7.00;;
10092;SDS011;5085;48.092;11.484;2023-02-28T10:34:44;11.70;;;6.05;;
10092;SDS011;5085;48.092;11.484;2023-02-28T10:37:16;8.20;;;4.63;;
10092;SDS011;5085;48.092;11.484;2023-02-28T10:39:43;11.30;;;6.80;;
10092;SDS011;5085;48.092;11.484;2023-02-28T10:42:27;13.48;;;6.22;;
10092;SDS011;5085;48.092;11.484;2023-02-28T10:45:05;16.83;;;7.45;;
10092;SDS011;5085;48.092;11.484;2023-02-28T10:50:26;11.48;;;4.18;;
10092;SDS011;5085;48.092;11.484;2023-02-28T10:58:29;6.75;;;4.30;;
10092;SDS011;5085;48.092;11.484;2023-02-28T11:01:10;12.38;;;6.90;;
10092;SDS011;5085;48.092;11.484;2023-02-28T11:03:40;9.00;;;6.55;;
10092;SDS011;5085;48.092;11.484;2023-02-28T11:06:07;16.20;;;6.07;;
10092;SDS011;5085;48.092;11.484;2023-02-28T11:08:44;10.73;;;5.85;;
10092;SDS011;5085;48.092;11.484;2023-02-28T11:11:13;13.43;;;6.88;;
10092;SDS011;5085;48.092;11.484;2023-02-28T11:13:39;10.43;;;5.82;;
10092;SDS011;5085;48.092;11.484;2023-02-28T11:16:06;20.67;;;7.18;;
10092;SDS011;5085;48.092;11.484;2023-02-28T11:21:06;10.98;;;5.93;;
10092;SDS011;5085;48.092;11.484;2023-02-28T11:23:34;11.02;;;6.50;;
10092;SDS011;5085;48.092;11.484;2023-02-28T11:26:03;14.68;;;6.80;;
10092;SDS011;5085;48.092;11.484;2023-02-28T11:28:34;13.82;;;7.65;;
10092;SDS011;5085;48.092;11.484;2023-02-28T11:31:03;13.55;;;7.78;;
10092;SDS011;5085;48.092;11.484;2023-02-28T11:38:38;12.25;;;7.45;;
10092;SDS011;5085;48.092;11.484;2023-02-28T11:46:47;14.25;;;7.28;;
10092;SDS011;5085;48.092;11.484;2023-02-28T11:49:29;14.65;;;7.32;;
10092;SDS011;5085;48.092;11.484;2023-02-28T11:54:51;11.68;;;7.25;;
10092;SDS011;5085;48.092;11.484;2023-02-28T12:00:32;11.52;;;6.47;;
10092;SDS011;5085;48.092;11.484;2023-02-28T12:05:41;14.07;;;7.75;;
10092;SDS011;5085;48.092;11.484;2023-02-28T12:08:15;11.57;;;6.65;;
10092;SDS011;5085;48.092;11.484;2023-02-28T12:11:12;12.30;;;7.13;;
10092;SDS011;5085;48.092;11.484;2023-02-28T12:27:46;13.75;;;7.05;;
10092;SDS011;5085;48.092;11.484;2023-02-28T12:30:34;14.02;;;7.82;;
10092;SDS011;5085;48.092;11.484;2023-02-28T12:33:12;13.02;;;7.13;;
10092;SDS011;5085;48.092;11.484;2023-02-28T12:35:58;12.55;;;7.72;;
10092;SDS011;5085;48.092;11.484;2023-02-28T12:41:42;14.68;;;7.70;;
10092;SDS011;5085;48.092;11.484;2023-02-28T12:44:27;12.30;;;7.90;;
10092;SDS011;5085;48.092;11.484;2023-02-28T12:47:00;13.20;;;7.65;;
10092;SDS011;5085;48.092;11.484;2023-02-28T12:49:31;12.20;;;7.43;;
10092;SDS011;5085;48.092;11.484;2023-02-28T12:52:03;13.73;;;7.13;;
10092;SDS011;5085;48.092;11.484;2023-02-28T12:54:44;14.73;;;8.07;;
10092;SDS011;5085;48.092;11.484;2023-02-28T12:57:25;13.25;;;7.57;;
10092;SDS011;5085;48.092;11.484;2023-02-28T13:00:10;14.15;;;7.93;;
10092;SDS011;5085;48.092;11.484;2023-02-28T13:11:38;12.55;;;8.77;;
10092;SDS011;5085;48.092;11.484;2023-02-28T13:14:15;14.48;;;8.30;;
10092;SDS011;5085;48.092;11.484;2023-02-28T13:16:57;11.82;;;8.32;;
10092;SDS011;5085;48.092;11.484;2023-02-28T13:19:33;13.40;;;7.93;;
10092;SDS011;5085;48.092;11.484;2023-02-28T13:22:01;16.95;;;8.32;;
10092;SDS011;5085;48.092;11.484;2023-02-28T13:24:45;14.68;;;7.30;;
10092;SDS011;5085;48.092;11.484;2023-02-28T13:29:42;15.82;;;8.20;;
10092;SDS011;5085;48.092;11.484;2023-02-28T13:39:55;11.23;;;6.65;;
10092;SDS011;5085;48.092;11.484;2023-02-28T13:47:30;13.07;;;7.22;;
10092;SDS011;5085;48.092;11.484;2023-02-28T13:50:23;10.68;;;6.53;;
10092;SDS011;5085;48.092;11.484;2023-02-28T13:53:22;12.38;;;6.90;;
10092;SDS011;5085;48.092;11.484;2023-02-28T13:59:03;12.02;;;6.93;;
10092;SDS011;5085;48.092;11.484;2023-02-28T14:07:16;11.25;;;6.80;;
10092;SDS011;5085;48.092;11.484;2023-02-28T14:09:50;11.40;;;7.28;;
10092;SDS011;5085;48.092;11.484;2023-02-28T14:20:41;11.75;;;7.28;;
10092;SDS011;5085;48.092;11.484;2023-02-28T14:23:14;11.82;;;7.60;;
10092;SDS011;5085;48.092;11.484;2023-02-28T14:34:45;11.57;;;7.93;;
10092;SDS011;5085;48.092;11.484;2023-02-28T14:37:26;14.82;;;8.18;;
10092;SDS011;5085;48.092;11.484;2023-02-28T14:39:55;10.32;;;7.18;;
10092;SDS011;5085;48.092;11.484;2023-02-28T14:45:00;11.73;;;7.63;;
10092;SDS011;5085;48.092;11.484;2023-02-28T14:47:33;14.65;;;7.63;;
10092;SDS011;5085;48.092;11.484;2023-02-28T14:50:02;13.07;;;7.93;;
10092;SDS011;5085;48.092;11.484;2023-02-28T14:52:30;12.48;;;7.15;;
10092;SDS011;5085;48.092;11.484;2023-02-28T14:54:59;13.18;;;8.45;;
10092;SDS011;5085;48.092;11.484;2023-02-28T15:02:30;12.80;;;7.70;;
10092;SDS011;5085;48.092;11.484;2023-02-28T15:07:37;12.07;;;7.00;;
10092;SDS011;5085;48.092;11.484;2023-02-28T15:10:07;16.30;;;7.07;;
10092;SDS011;5085;48.092;11.484;2023-02-28T15:12:35;11.52;;;6.70;;
10092;SDS011;5085;48.092;11.484;2023-02-28T15:15:02;11.35;;;6.10;;
10092;SDS011;5085;48.092;11.484;2023-02-28T15:17:29;15.45;;;6.47;;
10092;SDS011;5085;48.092;11.484;2023-02-28T15:19:55;12.52;;;6.43;;
10092;SDS011;5085;48.092;11.484;2023-02-28T15:22:27;11.18;;;5.63;;
10092;SDS011;5085;48.092;11.484;2023-02-28T15:25:01;10.75;;;5.78;;
10092;SDS011;5085;48.092;11.484;2023-02-28T15:27:31;12.35;;;5.80;;
10092;SDS011;5085;48.092;11.484;2023-02-28T15:29:59;11.23;;;6.40;;
10092;SDS011;5085;48.092;11.484;2023-02-28T15:32:31;15.00;;;7.07;;
10092;SDS011;5085;48.092;11.484;2023-02-28T15:35:17;11.68;;;6.72;;
10092;SDS011;5085;48.092;11.484;2023-02-28T15:37:46;12.02;;;6.53;;
10092;SDS011;5085;48.092;11.484;2023-02-28T15:42:42;13.57;;;6.53;;
10092;SDS011;5085;48.092;11.484;2023-02-28T15:45:46;20.38;;;7.18;;
10092;SDS011;5085;48.092;11.484;2023-02-28T15:48:21;9.25;;;5.90;;
10092;SDS011;5085;48.092;11.484;2023-02-28T15:50:51;10.02;;;5.63;;
10092;SDS011;5085;48.092;11.484;2023-02-28T15:53:21;10.93;;;5.30;;
10092;SDS011;5085;48.092;11.484;2023-02-28T15:56:24;11.50;;;6.07;;
10092;SDS011;5085;48.092;11.484;2023-02-28T15:58:49;10.10;;;6.00;;
10092;SDS011;5085;48.092;11.484;2023-02-28T16:01:19;9.25;;;4.95;;
10092;SDS011;5085;48.092;11.484;2023-02-28T16:03:50;10.30;;;5.13;;
10092;SDS011;5085;48.092;11.484;2023-02-28T16:08:50;13.88;;;5.95;;
10092;SDS011;5085;48.092;11.484;2023-02-28T16:11:17;11.25;;;6.13;;
10092;SDS011;5085;48.092;11.484;2023-02-28T16:13:44;11.65;;;5.55;;
10092;SDS011;5085;48.092;11.484;2023-02-28T16:16:14;9.23;;;5.63;;
10092;SDS011;5085;48.092;11.484;2023-02-28T16:18:42;16.33;;;6.35;;
10092;SDS011;5085;48.092;11.484;2023-02-28T16:21:08;10.63;;;6.03;;
10092;SDS011;5085;48.092;11.484;2023-02-28T16:23:34;14.10;;;6.03;;
10092;SDS011;5085;48.092;11.484;2023-02-28T16:26:03;9.60;;;5.43;;
10092;SDS011;5085;48.092;11.484;2023-02-28T16:28:30;11.60;;;6.68;;
10092;SDS011;5085;48.092;11.484;2023-02-28T16:31:11;11.73;;;5.57;;
10092;SDS011;5085;48.092;11.484;2023-02-28T16:33:42;10.57;;;6.07;;
10092;SDS011;5085;48.092;11.484;2023-02-28T16:36:14;13.75;;;7.07;;
10092;SDS011;5085;48.092;11.484;2023-02-28T16:38:41;13.57;;;6.93;;
10092;SDS011;5085;48.092;11.484;2023-02-28T16:41:16;13.73;;;7.28;;
10092;SDS011;5085;48.092;11.484;2023-02-28T16:43:45;10.48;;;5.63;;
10092;SDS011;5085;48.092;11.484;2023-02-28T16:46:14;15.73;;;7.20;;
10092;SDS011;5085;48.092;11.484;2023-02-28T16:48:40;13.98;;;6.75;;
10092;SDS011;5085;48.092;11.484;2023-02-28T16:51:13;18.20;;;6.68;;
10092;SDS011;5085;48.092;11.484;2023-02-28T16:53:40;12.40;;;6.90;;
10092;SDS011;5085;48.092;11.484;2023-02-28T16:56:12;15.23;;;7.85;;
10092;SDS011;5085;48.092;11.484;2023-02-28T16:58:48;13.75;;;7.55;;
10092;SDS011;5085;48.092;11.484;2023-02-28T17:01:15;15.85;;;6.85;;
10092;SDS011;5085;48.092;11.484;2023-02-28T17:03:42;13.68;;;7.15;;
10092;SDS011;5085;48.092;11.484;2023-02-28T17:06:19;13.93;;;6.88;;
10092;SDS011;5085;48.092;11.484;2023-02-28T17:08:50;11.48;;;6.47;;
10092;SDS011;5085;48.092;11.484;2023-02-28T17:11:16;11.93;;;7.43;;
10092;SDS011;5085;48.092;11.484;2023-02-28T17:13:43;15.10;;;7.88;;
10092;SDS011;5085;48.092;11.484;2023-02-28T17:16:22;14.18;;;7.25;;
10092;SDS011;5085;48.092;11.484;2023-02-28T17:18:52;14.35;;;7.00;;
10092;SDS011;5085;48.092;11.484;2023-02-28T17:21:20;19.55;;;7.70;;